METAR Data
IDs: Format: Raw Decoded Include TAF

Data at: 2234 UTC 21 May 2022

METAR for:KOCQ (Oconto/Blake Mem, WI, US)
Text:KOCQ 212215Z AUTO 11012KT 10SM SCT022 13/07 A3002 RMK AO1 T01300072
Temperature: 13.0°C ( 55°F)
Dewpoint: 7.2°C ( 45°F) [RH = 68%]
Pressure (altimeter):30.02 inches Hg (1016.7 mb)
Winds:from the ESE (110 degrees) at 14 MPH (12 knots; 6.2 m/s)
Visibility:10 or more sm (16+ km)
Ceiling:at least 12,000 feet AGL
Clouds: scattered clouds at 2200 feet AGL
QC Flag:automated observation with no human augmentation
Text:KOCQ 212155Z AUTO 12010KT 10SM SCT022 14/08 A3002 RMK AO1 T01350075
Temperature: 13.5°C ( 56°F)
Dewpoint: 7.5°C ( 46°F) [RH = 67%]
Pressure (altimeter):30.02 inches Hg (1016.7 mb)
Winds:from the ESE (120 degrees) at 12 MPH (10 knots; 5.1 m/s)
Visibility:10 or more sm (16+ km)
Ceiling:at least 12,000 feet AGL
Clouds: scattered clouds at 2200 feet AGL
QC Flag:automated observation with no human augmentation
Text:KOCQ 212135Z AUTO 10008G14KT 10SM SCT060 14/08 A3002 RMK AO1 T01370080
Temperature: 13.7°C ( 57°F)
Dewpoint: 8.0°C ( 46°F) [RH = 68%]
Pressure (altimeter):30.02 inches Hg (1016.7 mb)
Winds:from the E (100 degrees) at 9 MPH (8 knots; 4.1 m/s) gusting to 16 MPH (14 knots; 7.2 m/s)
Visibility:10 or more sm (16+ km)
Ceiling:at least 12,000 feet AGL
Clouds: scattered clouds at 6000 feet AGL
QC Flag:automated observation with no human augmentation
Text:KOCQ 212115Z AUTO 10011KT 10SM SCT060 13/08 A3001 RMK AO1 T01340076
Temperature: 13.4°C ( 56°F)
Dewpoint: 7.6°C ( 46°F) [RH = 68%]
Pressure (altimeter):30.01 inches Hg (1016.3 mb)
Winds:from the E (100 degrees) at 13 MPH (11 knots; 5.7 m/s)
Visibility:10 or more sm (16+ km)
Ceiling:at least 12,000 feet AGL
Clouds: scattered clouds at 6000 feet AGL
QC Flag:automated observation with no human augmentation
Text:KOCQ 212055Z AUTO 12011KT 10SM SCT046 SCT050 13/07 A3001 RMK AO1 T01330073
Temperature: 13.3°C ( 56°F)
Dewpoint: 7.3°C ( 45°F) [RH = 67%]
Pressure (altimeter):30.01 inches Hg (1016.3 mb)
Winds:from the ESE (120 degrees) at 13 MPH (11 knots; 5.7 m/s)
Visibility:10 or more sm (16+ km)
Ceiling:at least 12,000 feet AGL
Clouds: scattered clouds at 4600 feet AGL, scattered clouds at 5000 feet AGL
QC Flag:automated observation with no human augmentation
Text:KOCQ 212035Z AUTO 10010KT 10SM CLR 15/07 A3002 RMK AO1 T01510074
Temperature: 15.1°C ( 59°F)
Dewpoint: 7.4°C ( 45°F) [RH = 60%]
Pressure (altimeter):30.02 inches Hg (1016.7 mb)
Winds:from the E (100 degrees) at 12 MPH (10 knots; 5.1 m/s)
Visibility:10 or more sm (16+ km)
Ceiling:at least 12,000 feet AGL
Clouds:sky clear below 12,000 feet AGL
QC Flag:automated observation with no human augmentation
Text:KOCQ 212015Z AUTO 10006KT 10SM CLR 16/08 A3001 RMK AO1 T01570075
Temperature: 15.7°C ( 60°F)
Dewpoint: 7.5°C ( 46°F) [RH = 58%]
Pressure (altimeter):30.01 inches Hg (1016.3 mb)
Winds:from the E (100 degrees) at 7 MPH (6 knots; 3.1 m/s)
Visibility:10 or more sm (16+ km)
Ceiling:at least 12,000 feet AGL
Clouds:sky clear below 12,000 feet AGL
QC Flag:automated observation with no human augmentation
Text:KOCQ 211955Z AUTO 09005KT 10SM CLR 15/08 A3001 RMK AO1 T01480080
Temperature: 14.8°C ( 59°F)
Dewpoint: 8.0°C ( 46°F) [RH = 64%]
Pressure (altimeter):30.01 inches Hg (1016.3 mb)
Winds:from the E (90 degrees) at 6 MPH (5 knots; 2.6 m/s)
Visibility:10 or more sm (16+ km)
Ceiling:at least 12,000 feet AGL
Clouds:sky clear below 12,000 feet AGL
QC Flag:automated observation with no human augmentation
Text:KOCQ 211935Z AUTO 00000KT 10SM SCT050 14/08 A3001 RMK AO1 T01420080
Temperature: 14.2°C ( 58°F)
Dewpoint: 8.0°C ( 46°F) [RH = 66%]
Pressure (altimeter):30.01 inches Hg (1016.3 mb)
Winds:calm
Visibility:10 or more sm (16+ km)
Ceiling:at least 12,000 feet AGL
Clouds: scattered clouds at 5000 feet AGL
QC Flag:automated observation with no human augmentation
Text:KOCQ 211915Z AUTO 08006KT 10SM CLR 14/08 A3002 RMK AO1 T01440080
Temperature: 14.4°C ( 58°F)
Dewpoint: 8.0°C ( 46°F) [RH = 65%]
Pressure (altimeter):30.02 inches Hg (1016.7 mb)
Winds:from the E (80 degrees) at 7 MPH (6 knots; 3.1 m/s)
Visibility:10 or more sm (16+ km)
Ceiling:at least 12,000 feet AGL
Clouds:sky clear below 12,000 feet AGL
QC Flag:automated observation with no human augmentation
Text:KOCQ 211855Z AUTO 09005KT 10SM SCT046 14/08 A3002 RMK AO1 T01360076
Temperature: 13.6°C ( 56°F)
Dewpoint: 7.6°C ( 46°F) [RH = 67%]
Pressure (altimeter):30.02 inches Hg (1016.7 mb)
Winds:from the E (90 degrees) at 6 MPH (5 knots; 2.6 m/s)
Visibility:10 or more sm (16+ km)
Ceiling:at least 12,000 feet AGL
Clouds: scattered clouds at 4600 feet AGL
QC Flag:automated observation with no human augmentation
Text:KOCQ 211835Z AUTO 10008KT 10SM SCT039 OVC046 14/08 A3001 RMK AO1 T01400079
Temperature: 14.0°C ( 57°F)
Dewpoint: 7.9°C ( 46°F) [RH = 67%]
Pressure (altimeter):30.01 inches Hg (1016.3 mb)
Winds:from the E (100 degrees) at 9 MPH (8 knots; 4.1 m/s)
Visibility:10 or more sm (16+ km)
Ceiling:4600 feet AGL
Clouds: scattered clouds at 3900 feet AGL, overcast cloud deck at 4600 feet AGL
QC Flag:automated observation with no human augmentation
Text:KOCQ 211815Z AUTO 12008KT 10SM BKN041 14/08 A3001 RMK AO1 T01440082
Temperature: 14.4°C ( 58°F)
Dewpoint: 8.2°C ( 47°F) [RH = 66%]
Pressure (altimeter):30.01 inches Hg (1016.3 mb)
Winds:from the ESE (120 degrees) at 9 MPH (8 knots; 4.1 m/s)
Visibility:10 or more sm (16+ km)
Ceiling:4100 feet AGL
Clouds: broken clouds at 4100 feet AGL
QC Flag:automated observation with no human augmentation
Text:KOCQ 211755Z AUTO 12007KT 10SM SCT043 15/08 A3001 RMK AO1 T01460075 10157 20110
Temperature: 14.6°C ( 58°F)
Dewpoint: 7.5°C ( 46°F) [RH = 62%]
Pressure (altimeter):30.01 inches Hg (1016.3 mb)
Winds:from the ESE (120 degrees) at 8 MPH (7 knots; 3.6 m/s)
Visibility:10 or more sm (16+ km)
Ceiling:at least 12,000 feet AGL
Clouds: scattered clouds at 4300 feet AGL
QC Flag:automated observation with no human augmentation
Text:KOCQ 211735Z AUTO 00000KT 10SM SCT043 15/07 A3001 RMK AO1 T01480073
Temperature: 14.8°C ( 59°F)
Dewpoint: 7.3°C ( 45°F) [RH = 61%]
Pressure (altimeter):30.01 inches Hg (1016.3 mb)
Winds:calm
Visibility:10 or more sm (16+ km)
Ceiling:at least 12,000 feet AGL
Clouds: scattered clouds at 4300 feet AGL
QC Flag:automated observation with no human augmentation
Text:KOCQ 211715Z AUTO 26009KT 10SM CLR 15/06 A3001 RMK AO1 T01510056
Temperature: 15.1°C ( 59°F)
Dewpoint: 5.6°C ( 42°F) [RH = 53%]
Pressure (altimeter):30.01 inches Hg (1016.3 mb)
Winds:from the W (260 degrees) at 10 MPH (9 knots; 4.6 m/s)
Visibility:10 or more sm (16+ km)
Ceiling:at least 12,000 feet AGL
Clouds:sky clear below 12,000 feet AGL
QC Flag:automated observation with no human augmentation
Text:KOCQ 211655Z AUTO 25005KT 10SM SCT041 15/05 A3001 RMK AO1 T01530054
Temperature: 15.3°C ( 60°F)
Dewpoint: 5.4°C ( 42°F) [RH = 52%]
Pressure (altimeter):30.01 inches Hg (1016.3 mb)
Winds:from the WSW (250 degrees) at 6 MPH (5 knots; 2.6 m/s)
Visibility:10 or more sm (16+ km)
Ceiling:at least 12,000 feet AGL
Clouds: scattered clouds at 4100 feet AGL
QC Flag:automated observation with no human augmentation
Text:KOCQ 211635Z AUTO 24004KT 10SM SCT037 15/06 A3000 RMK AO1 T01500055
Temperature: 15.0°C ( 59°F)
Dewpoint: 5.5°C ( 42°F) [RH = 53%]
Pressure (altimeter):30.00 inches Hg (1016.0 mb)
Winds:from the WSW (240 degrees) at 5 MPH (4 knots; 2.1 m/s)
Visibility:10 or more sm (16+ km)
Ceiling:at least 12,000 feet AGL
Clouds: scattered clouds at 3700 feet AGL
QC Flag:automated observation with no human augmentation
Text:KOCQ 211615Z AUTO 29003KT 10SM BKN037 15/06 A3000 RMK AO1 T01460061
Temperature: 14.6°C ( 58°F)
Dewpoint: 6.1°C ( 43°F) [RH = 57%]
Pressure (altimeter):30.00 inches Hg (1016.0 mb)
Winds:from the WNW (290 degrees) at 3 MPH (3 knots; 1.5 m/s)
Visibility:10 or more sm (16+ km)
Ceiling:3700 feet AGL
Clouds: broken clouds at 3700 feet AGL
QC Flag:automated observation with no human augmentation
Text:KOCQ 211555Z AUTO 00000KT 10SM SCT035 14/06 A2999 RMK AO1 T01440058
Temperature: 14.4°C ( 58°F)
Dewpoint: 5.8°C ( 42°F) [RH = 56%]
Pressure (altimeter):29.99 inches Hg (1015.7 mb)
Winds:calm
Visibility:10 or more sm (16+ km)
Ceiling:at least 12,000 feet AGL
Clouds: scattered clouds at 3500 feet AGL
QC Flag:automated observation with no human augmentation
Text:KOCQ 211535Z AUTO 32004KT 10SM SCT031 14/07 A2996 RMK AO1 T01410065
Temperature: 14.1°C ( 57°F)
Dewpoint: 6.5°C ( 44°F) [RH = 60%]
Pressure (altimeter):29.96 inches Hg (1014.6 mb)
Winds:from the NW (320 degrees) at 5 MPH (4 knots; 2.1 m/s)
Visibility:10 or more sm (16+ km)
Ceiling:at least 12,000 feet AGL
Clouds: scattered clouds at 3100 feet AGL
QC Flag:automated observation with no human augmentation
Text:KOCQ 211515Z AUTO 28006KT 10SM BKN029 14/07 A2996 RMK AO1 T01370072
Temperature: 13.7°C ( 57°F)
Dewpoint: 7.2°C ( 45°F) [RH = 65%]
Pressure (altimeter):29.96 inches Hg (1014.6 mb)
Winds:from the W (280 degrees) at 7 MPH (6 knots; 3.1 m/s)
Visibility:10 or more sm (16+ km)
Ceiling:2900 feet AGL
Clouds: broken clouds at 2900 feet AGL
QC Flag:automated observation with no human augmentation
Text:KOCQ 211455Z AUTO 34007KT 10SM BKN029 14/07 A2993 RMK AO1 T01360069
Temperature: 13.6°C ( 56°F)
Dewpoint: 6.9°C ( 44°F) [RH = 64%]
Pressure (altimeter):29.93 inches Hg (1013.6 mb)
Winds:from the NNW (340 degrees) at 8 MPH (7 knots; 3.6 m/s)
Visibility:10 or more sm (16+ km)
Ceiling:2900 feet AGL
Clouds: broken clouds at 2900 feet AGL
QC Flag:automated observation with no human augmentation
Text:KOCQ 211435Z AUTO 35008KT 10SM CLR 14/07 A2992 RMK AO1 T01350068
Temperature: 13.5°C ( 56°F)
Dewpoint: 6.8°C ( 44°F) [RH = 64%]
Pressure (altimeter):29.92 inches Hg (1013.3 mb)
Winds:from the N (350 degrees) at 9 MPH (8 knots; 4.1 m/s)
Visibility:10 or more sm (16+ km)
Ceiling:at least 12,000 feet AGL
Clouds:sky clear below 12,000 feet AGL
QC Flag:automated observation with no human augmentation
Text:KOCQ 211415Z AUTO 35008KT 10SM CLR 13/07 A2992 RMK AO1 T01310067
Temperature: 13.1°C ( 56°F)
Dewpoint: 6.7°C ( 44°F) [RH = 65%]
Pressure (altimeter):29.92 inches Hg (1013.3 mb)
Winds:from the N (350 degrees) at 9 MPH (8 knots; 4.1 m/s)
Visibility:10 or more sm (16+ km)
Ceiling:at least 12,000 feet AGL
Clouds:sky clear below 12,000 feet AGL
QC Flag:automated observation with no human augmentation
Text:KOCQ 211355Z AUTO 31004KT 10SM CLR 13/06 A2992 RMK AO1 T01260064
Temperature: 12.6°C ( 55°F)
Dewpoint: 6.4°C ( 44°F) [RH = 66%]
Pressure (altimeter):29.92 inches Hg (1013.3 mb)
Winds:from the NW (310 degrees) at 5 MPH (4 knots; 2.1 m/s)
Visibility:10 or more sm (16+ km)
Ceiling:at least 12,000 feet AGL
Clouds:sky clear below 12,000 feet AGL
QC Flag:automated observation with no human augmentation
Text:KOCQ 211335Z AUTO 36007KT 10SM CLR 13/06 A2993 RMK AO1 T01260064
Temperature: 12.6°C ( 55°F)
Dewpoint: 6.4°C ( 44°F) [RH = 66%]
Pressure (altimeter):29.93 inches Hg (1013.6 mb)
Winds:from the N (360 degrees) at 8 MPH (7 knots; 3.6 m/s)
Visibility:10 or more sm (16+ km)
Ceiling:at least 12,000 feet AGL
Clouds:sky clear below 12,000 feet AGL
QC Flag:automated observation with no human augmentation
Text:KOCQ 211315Z AUTO 34006KT 10SM CLR 12/06 A2992 RMK AO1 T01190062
Temperature: 11.9°C ( 53°F)
Dewpoint: 6.2°C ( 43°F) [RH = 68%]
Pressure (altimeter):29.92 inches Hg (1013.3 mb)
Winds:from the NNW (340 degrees) at 7 MPH (6 knots; 3.1 m/s)
Visibility:10 or more sm (16+ km)
Ceiling:at least 12,000 feet AGL
Clouds:sky clear below 12,000 feet AGL
QC Flag:automated observation with no human augmentation
Text:KOCQ 211255Z AUTO 32006KT 10SM CLR 11/06 A2992 RMK AO1 T01110060
Temperature: 11.1°C ( 52°F)
Dewpoint: 6.0°C ( 43°F) [RH = 71%]
Pressure (altimeter):29.92 inches Hg (1013.3 mb)
Winds:from the NW (320 degrees) at 7 MPH (6 knots; 3.1 m/s)
Visibility:10 or more sm (16+ km)
Ceiling:at least 12,000 feet AGL
Clouds:sky clear below 12,000 feet AGL
QC Flag:automated observation with no human augmentation
Text:KOCQ 211235Z AUTO 35007KT 10SM CLR 12/06 A2991 RMK AO1 T01160063
Temperature: 11.6°C ( 53°F)
Dewpoint: 6.3°C ( 43°F) [RH = 70%]
Pressure (altimeter):29.91 inches Hg (1013.0 mb)
Winds:from the N (350 degrees) at 8 MPH (7 knots; 3.6 m/s)
Visibility:10 or more sm (16+ km)
Ceiling:at least 12,000 feet AGL
Clouds:sky clear below 12,000 feet AGL
QC Flag:automated observation with no human augmentation
Text:KOCQ 202335Z AUTO 26004KT 10SM OVC080 16/11 A2956 RMK AO1 T01640110
Temperature: 16.4°C ( 62°F)
Dewpoint: 11.0°C ( 52°F) [RH = 70%]
Pressure (altimeter):29.56 inches Hg (1001.1 mb)
Winds:from the W (260 degrees) at 5 MPH (4 knots; 2.1 m/s)
Visibility:10 or more sm (16+ km)
Ceiling:8000 feet AGL
Clouds: overcast cloud deck at 8000 feet AGL
QC Flag:automated observation with no human augmentation
Text:KOCQ 202315Z AUTO 25004KT 10SM OVC080 17/11 A2955 RMK AO1 T01650110
Temperature: 16.5°C ( 62°F)
Dewpoint: 11.0°C ( 52°F) [RH = 70%]
Pressure (altimeter):29.55 inches Hg (1000.8 mb)
Winds:from the WSW (250 degrees) at 5 MPH (4 knots; 2.1 m/s)
Visibility:10 or more sm (16+ km)
Ceiling:8000 feet AGL
Clouds: overcast cloud deck at 8000 feet AGL
QC Flag:automated observation with no human augmentation
Text:KOCQ 202255Z AUTO 26005KT 10SM OVC080 17/12 A2954 RMK AO1 T01660120
Temperature: 16.6°C ( 62°F)
Dewpoint: 12.0°C ( 54°F) [RH = 74%]
Pressure (altimeter):29.54 inches Hg (1000.4 mb)
Winds:from the W (260 degrees) at 6 MPH (5 knots; 2.6 m/s)
Visibility:10 or more sm (16+ km)
Ceiling:8000 feet AGL
Clouds: overcast cloud deck at 8000 feet AGL
QC Flag:automated observation with no human augmentation
Text:KOCQ 202235Z AUTO 26005KT 10SM OVC080 17/12 A2953 RMK AO1 T01680115
Temperature: 16.8°C ( 62°F)
Dewpoint: 11.5°C ( 53°F) [RH = 71%]
Pressure (altimeter):29.53 inches Hg (1000.1 mb)
Winds:from the W (260 degrees) at 6 MPH (5 knots; 2.6 m/s)
Visibility:10 or more sm (16+ km)
Ceiling:8000 feet AGL
Clouds: overcast cloud deck at 8000 feet AGL
QC Flag:automated observation with no human augmentation
Text:KOCQ 202215Z AUTO 25005KT 10SM OVC080 17/13 A2953 RMK AO1 T01650133
Temperature: 16.5°C ( 62°F)
Dewpoint: 13.3°C ( 56°F) [RH = 81%]
Pressure (altimeter):29.53 inches Hg (1000.1 mb)
Winds:from the WSW (250 degrees) at 6 MPH (5 knots; 2.6 m/s)
Visibility:10 or more sm (16+ km)
Ceiling:8000 feet AGL
Clouds: overcast cloud deck at 8000 feet AGL
QC Flag:automated observation with no human augmentation
Text:KOCQ 202155Z AUTO 27006KT 10SM OVC080 16/14 A2951 RMK AO1 T01620136
Temperature: 16.2°C ( 61°F)
Dewpoint: 13.6°C ( 56°F) [RH = 85%]
Pressure (altimeter):29.51 inches Hg ( 999.4 mb)
Winds:from the W (270 degrees) at 7 MPH (6 knots; 3.1 m/s)
Visibility:10 or more sm (16+ km)
Ceiling:8000 feet AGL
Clouds: overcast cloud deck at 8000 feet AGL
QC Flag:automated observation with no human augmentation
Text:KOCQ 202135Z AUTO 24004KT 10SM OVC070 16/14 A2951 RMK AO1 T01600139
Temperature: 16.0°C ( 61°F)
Dewpoint: 13.9°C ( 57°F) [RH = 87%]
Pressure (altimeter):29.51 inches Hg ( 999.4 mb)
Winds:from the WSW (240 degrees) at 5 MPH (4 knots; 2.1 m/s)
Visibility:10 or more sm (16+ km)
Ceiling:7000 feet AGL
Clouds: overcast cloud deck at 7000 feet AGL
QC Flag:automated observation with no human augmentation
Text:KOCQ 202115Z AUTO 27007KT 10SM OVC070 16/14 A2950 RMK AO1 T01600136
Temperature: 16.0°C ( 61°F)
Dewpoint: 13.6°C ( 56°F) [RH = 86%]
Pressure (altimeter):29.50 inches Hg ( 999.1 mb)
Winds:from the W (270 degrees) at 8 MPH (7 knots; 3.6 m/s)
Visibility:10 or more sm (16+ km)
Ceiling:7000 feet AGL
Clouds: overcast cloud deck at 7000 feet AGL
QC Flag:automated observation with no human augmentation
Text:KOCQ 202055Z AUTO 29006KT 10SM SCT027 SCT032 OVC070 16/14 A2948 RMK AO1 60013 T01600137
Temperature: 16.0°C ( 61°F)
Dewpoint: 13.7°C ( 57°F) [RH = 86%]
Pressure (altimeter):29.48 inches Hg ( 998.4 mb)
Winds:from the WNW (290 degrees) at 7 MPH (6 knots; 3.1 m/s)
Visibility:10 or more sm (16+ km)
Ceiling:7000 feet AGL
Clouds: scattered clouds at 2700 feet AGL, scattered clouds at 3200 feet AGL, overcast cloud deck at 7000 feet AGL
QC Flag:automated observation with no human augmentation
Text:KOCQ 202015Z AUTO 28005KT 10SM SCT017 SCT022 OVC028 16/16 A2946 RMK AO1 T01610158
Temperature: 16.1°C ( 61°F)
Dewpoint: 15.8°C ( 60°F) [RH = 98%]
Pressure (altimeter):29.46 inches Hg ( 997.7 mb)
Winds:from the W (280 degrees) at 6 MPH (5 knots; 2.6 m/s)
Visibility:10 or more sm (16+ km)
Ceiling:2800 feet AGL
Clouds: scattered clouds at 1700 feet AGL, scattered clouds at 2200 feet AGL, overcast cloud deck at 2800 feet AGL
QC Flag:automated observation with no human augmentation
Text:KOCQ 201955Z AUTO 30004KT 10SM SCT017 OVC027 16/16 A2943 RMK AO1 P0013 T01600160
Temperature: 16.0°C ( 61°F)
Dewpoint: 16.0°C ( 61°F) [RH = 100%]
Pressure (altimeter):29.43 inches Hg ( 996.7 mb)
Winds:from the WNW (300 degrees) at 5 MPH (4 knots; 2.1 m/s)
Visibility:10 or more sm (16+ km)
Ceiling:2700 feet AGL
Clouds: scattered clouds at 1700 feet AGL, overcast cloud deck at 2700 feet AGL
QC Flag:automated observation with no human augmentation
Text:KOCQ 201935Z AUTO 27005KT 7SM SCT017 BKN027 OVC070 15/15 A2943 RMK AO1 P0013 T01530153
Temperature: 15.3°C ( 60°F)
Dewpoint: 15.3°C ( 60°F) [RH = 100%]
Pressure (altimeter):29.43 inches Hg ( 996.7 mb)
Winds:from the W (270 degrees) at 6 MPH (5 knots; 2.6 m/s)
Visibility: 7 sm ( 11 km)
Ceiling:2700 feet AGL
Clouds: scattered clouds at 1700 feet AGL, broken clouds at 2700 feet AGL, overcast cloud deck at 7000 feet AGL
QC Flag:automated observation with no human augmentation
Text:KOCQ 201915Z AUTO 29005KT 1 3/4SM SCT016 BKN030 OVC060 15/15 A2942 RMK AO1 P0011 T01520152
Temperature: 15.2°C ( 59°F)
Dewpoint: 15.2°C ( 59°F) [RH = 100%]
Pressure (altimeter):29.42 inches Hg ( 996.4 mb)
Winds:from the WNW (290 degrees) at 6 MPH (5 knots; 2.6 m/s)
Visibility: 1.75 sm ( 2.82 km)
Ceiling:3000 feet AGL
Clouds: scattered clouds at 1600 feet AGL, broken clouds at 3000 feet AGL, overcast cloud deck at 6000 feet AGL
QC Flag:automated observation with no human augmentation
Text:KOCQ 201855Z AUTO 26007KT 10SM OVC060 16/15 A2940 RMK AO1 T01600151
Temperature: 16.0°C ( 61°F)
Dewpoint: 15.1°C ( 59°F) [RH = 94%]
Pressure (altimeter):29.40 inches Hg ( 995.7 mb)
Winds:from the W (260 degrees) at 8 MPH (7 knots; 3.6 m/s)
Visibility:10 or more sm (16+ km)
Ceiling:6000 feet AGL
Clouds: overcast cloud deck at 6000 feet AGL
QC Flag:automated observation with no human augmentation
Text:KOCQ 201835Z AUTO 28006KT 10SM OVC060 16/15 A2938 RMK AO1 T01620147
Temperature: 16.2°C ( 61°F)
Dewpoint: 14.7°C ( 58°F) [RH = 91%]
Pressure (altimeter):29.38 inches Hg ( 995.0 mb)
Winds:from the W (280 degrees) at 7 MPH (6 knots; 3.1 m/s)
Visibility:10 or more sm (16+ km)
Ceiling:6000 feet AGL
Clouds: overcast cloud deck at 6000 feet AGL
QC Flag:automated observation with no human augmentation
Text:KOCQ 201815Z AUTO 29007KT 10SM OVC060 17/15 A2938 RMK AO1 T01690146
Temperature: 16.9°C ( 62°F)
Dewpoint: 14.6°C ( 58°F) [RH = 86%]
Pressure (altimeter):29.38 inches Hg ( 995.0 mb)
Winds:from the WNW (290 degrees) at 8 MPH (7 knots; 3.6 m/s)
Visibility:10 or more sm (16+ km)
Ceiling:6000 feet AGL
Clouds: overcast cloud deck at 6000 feet AGL
QC Flag:automated observation with no human augmentation
Text:KOCQ 201755Z AUTO 28005KT 10SM OVC060 17/16 A2938 RMK AO1 60005 T01700158 10200 20158
Temperature: 17.0°C ( 63°F)
Dewpoint: 15.8°C ( 60°F) [RH = 93%]
Pressure (altimeter):29.38 inches Hg ( 995.0 mb)
Winds:from the W (280 degrees) at 6 MPH (5 knots; 2.6 m/s)
Visibility:10 or more sm (16+ km)
Ceiling:6000 feet AGL
Clouds: overcast cloud deck at 6000 feet AGL
QC Flag:automated observation with no human augmentation
Text:KOCQ 201735Z AUTO 29005KT 10SM OVC060 17/16 A2938 RMK AO1 T01700160
Temperature: 17.0°C ( 63°F)
Dewpoint: 16.0°C ( 61°F) [RH = 94%]
Pressure (altimeter):29.38 inches Hg ( 995.0 mb)
Winds:from the WNW (290 degrees) at 6 MPH (5 knots; 2.6 m/s)
Visibility:10 or more sm (16+ km)
Ceiling:6000 feet AGL
Clouds: overcast cloud deck at 6000 feet AGL
QC Flag:automated observation with no human augmentation
Text:KOCQ 201715Z AUTO 29006KT 10SM BKN048 OVC065 18/17 A2938 RMK AO1 T01760165
Temperature: 17.6°C ( 64°F)
Dewpoint: 16.5°C ( 62°F) [RH = 93%]
Pressure (altimeter):29.38 inches Hg ( 995.0 mb)
Winds:from the WNW (290 degrees) at 7 MPH (6 knots; 3.1 m/s)
Visibility:10 or more sm (16+ km)
Ceiling:4800 feet AGL
Clouds: broken clouds at 4800 feet AGL, overcast cloud deck at 6500 feet AGL
QC Flag:automated observation with no human augmentation
Text:KOCQ 201655Z AUTO 28007G17KT 260V320 4SM BKN035 BKN043 OVC050 18/17 A2936 RMK AO1 P0005 T01780173
Temperature: 17.8°C ( 64°F)
Dewpoint: 17.3°C ( 63°F) [RH = 97%]
Pressure (altimeter):29.36 inches Hg ( 994.3 mb)
Winds:from the W (280 degrees) at 8 MPH (7 knots; 3.6 m/s) gusting to 20 MPH (17 knots; 8.7 m/s)
Visibility: 4 sm ( 6 km)
Ceiling:3500 feet AGL
Clouds: broken clouds at 3500 feet AGL, broken clouds at 4300 feet AGL, overcast cloud deck at 5000 feet AGL
QC Flag:automated observation with no human augmentation
Text:KOCQ 201635Z AUTO 00000KT 10SM SCT014 BKN033 OVC040 19/17 A2933 RMK AO1 T01870171
Temperature: 18.7°C ( 66°F)
Dewpoint: 17.1°C ( 63°F) [RH = 90%]
Pressure (altimeter):29.33 inches Hg ( 993.3 mb)
Winds:calm
Visibility:10 or more sm (16+ km)
Ceiling:3300 feet AGL
Clouds: scattered clouds at 1400 feet AGL, broken clouds at 3300 feet AGL, overcast cloud deck at 4000 feet AGL
QC Flag:automated observation with no human augmentation
Text:KOCQ 201615Z AUTO 26007KT 10SM SCT014 BKN027 OVC040 19/17 A2934 RMK AO1 T01910173
Temperature: 19.1°C ( 66°F)
Dewpoint: 17.3°C ( 63°F) [RH = 89%]
Pressure (altimeter):29.34 inches Hg ( 993.6 mb)
Winds:from the W (260 degrees) at 8 MPH (7 knots; 3.6 m/s)
Visibility:10 or more sm (16+ km)
Ceiling:2700 feet AGL
Clouds: scattered clouds at 1400 feet AGL, broken clouds at 2700 feet AGL, overcast cloud deck at 4000 feet AGL
QC Flag:automated observation with no human augmentation
Text:KOCQ 201555Z AUTO 26005KT 10SM SCT014 BKN027 OVC040 20/18 A2933 RMK AO1 T01960177
Temperature: 19.6°C ( 67°F)
Dewpoint: 17.7°C ( 64°F) [RH = 89%]
Pressure (altimeter):29.33 inches Hg ( 993.3 mb)
Winds:from the W (260 degrees) at 6 MPH (5 knots; 2.6 m/s)
Visibility:10 or more sm (16+ km)
Ceiling:2700 feet AGL
Clouds: scattered clouds at 1400 feet AGL, broken clouds at 2700 feet AGL, overcast cloud deck at 4000 feet AGL
QC Flag:automated observation with no human augmentation
Text:KOCQ 201535Z AUTO 27004KT 10SM SCT012 BKN029 BKN033 20/18 A2931 RMK AO1 T01950176
Temperature: 19.5°C ( 67°F)
Dewpoint: 17.6°C ( 64°F) [RH = 89%]
Pressure (altimeter):29.31 inches Hg ( 992.6 mb)
Winds:from the W (270 degrees) at 5 MPH (4 knots; 2.1 m/s)
Visibility:10 or more sm (16+ km)
Ceiling:2900 feet AGL
Clouds: scattered clouds at 1200 feet AGL, broken clouds at 2900 feet AGL, broken clouds at 3300 feet AGL
QC Flag:automated observation with no human augmentation
Text:KOCQ 201515Z AUTO 26010KT 10SM SCT012 BKN045 OVC085 20/18 A2934 RMK AO1 T02000182
Temperature: 20.0°C ( 68°F)
Dewpoint: 18.2°C ( 65°F) [RH = 89%]
Pressure (altimeter):29.34 inches Hg ( 993.6 mb)
Winds:from the W (260 degrees) at 12 MPH (10 knots; 5.1 m/s)
Visibility:10 or more sm (16+ km)
Ceiling:4500 feet AGL
Clouds: scattered clouds at 1200 feet AGL, broken clouds at 4500 feet AGL, overcast cloud deck at 8500 feet AGL
QC Flag:automated observation with no human augmentation
Text:KOCQ 201455Z AUTO 25008G14KT 10SM SCT014 BKN044 OVC050 19/18 A2933 RMK AO1 T01900182
Temperature: 19.0°C ( 66°F)
Dewpoint: 18.2°C ( 65°F) [RH = 95%]
Pressure (altimeter):29.33 inches Hg ( 993.3 mb)
Winds:from the WSW (250 degrees) at 9 MPH (8 knots; 4.1 m/s) gusting to 16 MPH (14 knots; 7.2 m/s)
Visibility:10 or more sm (16+ km)
Ceiling:4400 feet AGL
Clouds: scattered clouds at 1400 feet AGL, broken clouds at 4400 feet AGL, overcast cloud deck at 5000 feet AGL
QC Flag:automated observation with no human augmentation
Text:KOCQ 201435Z AUTO 23009G14KT 10SM SCT014 OVC022 19/18 A2932 RMK AO1 T01910181
Temperature: 19.1°C ( 66°F)
Dewpoint: 18.1°C ( 65°F) [RH = 94%]
Pressure (altimeter):29.32 inches Hg ( 993.0 mb)
Winds:from the SW (230 degrees) at 10 MPH (9 knots; 4.6 m/s) gusting to 16 MPH (14 knots; 7.2 m/s)
Visibility:10 or more sm (16+ km)
Ceiling:2200 feet AGL
Clouds: scattered clouds at 1400 feet AGL, overcast cloud deck at 2200 feet AGL
QC Flag:automated observation with no human augmentation
Text:KOCQ 201415Z AUTO 24008KT 10SM BKN024 OVC090 19/18 A2934 RMK AO1 T01890181
Temperature: 18.9°C ( 66°F)
Dewpoint: 18.1°C ( 65°F) [RH = 95%]
Pressure (altimeter):29.34 inches Hg ( 993.6 mb)
Winds:from the WSW (240 degrees) at 9 MPH (8 knots; 4.1 m/s)
Visibility:10 or more sm (16+ km)
Ceiling:2400 feet AGL
Clouds: broken clouds at 2400 feet AGL, overcast cloud deck at 9000 feet AGL
QC Flag:automated observation with no human augmentation
Text:KOCQ 201355Z AUTO 23007KT 10SM SCT026 BKN090 19/18 A2934 RMK AO1 T01900176
Temperature: 19.0°C ( 66°F)
Dewpoint: 17.6°C ( 64°F) [RH = 92%]
Pressure (altimeter):29.34 inches Hg ( 993.6 mb)
Winds:from the SW (230 degrees) at 8 MPH (7 knots; 3.6 m/s)
Visibility:10 or more sm (16+ km)
Ceiling:9000 feet AGL
Clouds: scattered clouds at 2600 feet AGL, broken clouds at 9000 feet AGL
QC Flag:automated observation with no human augmentation
Text:KOCQ 201335Z AUTO 22008KT 10SM SCT026 19/17 A2933 RMK AO1 T01880172
Temperature: 18.8°C ( 66°F)
Dewpoint: 17.2°C ( 63°F) [RH = 90%]
Pressure (altimeter):29.33 inches Hg ( 993.3 mb)
Winds:from the SW (220 degrees) at 9 MPH (8 knots; 4.1 m/s)
Visibility:10 or more sm (16+ km)
Ceiling:at least 12,000 feet AGL
Clouds: scattered clouds at 2600 feet AGL
QC Flag:automated observation with no human augmentation
Text:KOCQ 201315Z AUTO 19009G14KT 10SM SCT050 18/17 A2930 RMK AO1 T01790167
Temperature: 17.9°C ( 64°F)
Dewpoint: 16.7°C ( 62°F) [RH = 93%]
Pressure (altimeter):29.30 inches Hg ( 992.3 mb)
Winds:from the S (190 degrees) at 10 MPH (9 knots; 4.6 m/s) gusting to 16 MPH (14 knots; 7.2 m/s)
Visibility:10 or more sm (16+ km)
Ceiling:at least 12,000 feet AGL
Clouds: scattered clouds at 5000 feet AGL
QC Flag:automated observation with no human augmentation
Text:KOCQ 201255Z AUTO 18008KT 10SM BKN048 BKN055 17/17 A2930 RMK AO1 T01740165
Temperature: 17.4°C ( 63°F)
Dewpoint: 16.5°C ( 62°F) [RH = 94%]
Pressure (altimeter):29.30 inches Hg ( 992.3 mb)
Winds:from the S (180 degrees) at 9 MPH (8 knots; 4.1 m/s)
Visibility:10 or more sm (16+ km)
Ceiling:4800 feet AGL
Clouds: broken clouds at 4800 feet AGL, broken clouds at 5500 feet AGL
QC Flag:automated observation with no human augmentation
Text:KOCQ 201235Z AUTO 16008KT 10SM SCT037 OVC046 16/16 A2931 RMK AO1 T01620162
Temperature: 16.2°C ( 61°F)
Dewpoint: 16.2°C ( 61°F) [RH = 100%]
Pressure (altimeter):29.31 inches Hg ( 992.6 mb)
Winds:from the SSE (160 degrees) at 9 MPH (8 knots; 4.1 m/s)
Visibility:10 or more sm (16+ km)
Ceiling:4600 feet AGL
Clouds: scattered clouds at 3700 feet AGL, overcast cloud deck at 4600 feet AGL
QC Flag:automated observation with no human augmentation
Text:KOCQ 201215Z AUTO 18004KT 10SM OVC039 16/16 A2933 RMK AO1 T01580158
Temperature: 15.8°C ( 60°F)
Dewpoint: 15.8°C ( 60°F) [RH = 100%]
Pressure (altimeter):29.33 inches Hg ( 993.3 mb)
Winds:from the S (180 degrees) at 5 MPH (4 knots; 2.1 m/s)
Visibility:10 or more sm (16+ km)
Ceiling:3900 feet AGL
Clouds: overcast cloud deck at 3900 feet AGL
QC Flag:automated observation with no human augmentation
Text:KOCQ 201155Z AUTO 19006KT 10SM OVC039 16/16 A2932 RMK AO1 60011 70053 T01580158 10170 20158
Temperature: 15.8°C ( 60°F)
Dewpoint: 15.8°C ( 60°F) [RH = 100%]
Pressure (altimeter):29.32 inches Hg ( 993.0 mb)
Winds:from the S (190 degrees) at 7 MPH (6 knots; 3.1 m/s)
Visibility:10 or more sm (16+ km)
Ceiling:3900 feet AGL
Clouds: overcast cloud deck at 3900 feet AGL
QC Flag:automated observation with no human augmentation
Text:KOCQ 201135Z AUTO 16007KT 10SM BKN039 BKN048 OVC055 16/16 A2931 RMK AO1 T01600160
Temperature: 16.0°C ( 61°F)
Dewpoint: 16.0°C ( 61°F) [RH = 100%]
Pressure (altimeter):29.31 inches Hg ( 992.6 mb)
Winds:from the SSE (160 degrees) at 8 MPH (7 knots; 3.6 m/s)
Visibility:10 or more sm (16+ km)
Ceiling:3900 feet AGL
Clouds: broken clouds at 3900 feet AGL, broken clouds at 4800 feet AGL, overcast cloud deck at 5500 feet AGL
QC Flag:automated observation with no human augmentation
Text:KOCQ 201115Z AUTO 15003KT 7SM BKN055 BKN065 OVC090 16/16 A2932 RMK AO1 T01580158
Temperature: 15.8°C ( 60°F)
Dewpoint: 15.8°C ( 60°F) [RH = 100%]
Pressure (altimeter):29.32 inches Hg ( 993.0 mb)
Winds:from the SSE (150 degrees) at 3 MPH (3 knots; 1.5 m/s)
Visibility: 7 sm ( 11 km)
Ceiling:5500 feet AGL
Clouds: broken clouds at 5500 feet AGL, broken clouds at 6500 feet AGL, overcast cloud deck at 9000 feet AGL
QC Flag:automated observation with no human augmentation
Text:KOCQ 201055Z AUTO 26005KT 7SM SCT065 BKN100 OVC110 16/16 A2936 RMK AO1 P0008 T01600160
Temperature: 16.0°C ( 61°F)
Dewpoint: 16.0°C ( 61°F) [RH = 100%]
Pressure (altimeter):29.36 inches Hg ( 994.3 mb)
Winds:from the W (260 degrees) at 6 MPH (5 knots; 2.6 m/s)
Visibility: 7 sm ( 11 km)
Ceiling:10000 feet AGL
Clouds: scattered clouds at 6500 feet AGL, broken clouds at 10000 feet AGL, overcast cloud deck at 11000 feet AGL
QC Flag:automated observation with no human augmentation
Text:KOCQ 201035Z AUTO 17005KT 7SM SCT065 OVC100 16/16 A2936 RMK AO1 P0006 T01610161
Temperature: 16.1°C ( 61°F)
Dewpoint: 16.1°C ( 61°F) [RH = 100%]
Pressure (altimeter):29.36 inches Hg ( 994.3 mb)
Winds:from the S (170 degrees) at 6 MPH (5 knots; 2.6 m/s)
Visibility: 7 sm ( 11 km)
Ceiling:10000 feet AGL
Clouds: scattered clouds at 6500 feet AGL, overcast cloud deck at 10000 feet AGL
QC Flag:automated observation with no human augmentation